<?xml version="1.0" encoding="UTF-8" standalone="no" ?>
<gpx xmlns="http://www.topografix.com/GPX/1/1" xmlns:xsi="http://www.w3.org/2001/XMLSchema-instance" xsi:schemaLocation="http://www.topografix.com/GPX/1/1 http://www.topografix.com/GPX/1/1/gpx.xsd" version="1.1" creator="VisuGPX - https://www.visugpx.com">
  <metadata>
    <name>Saint Jean de Pourcharesse - Terrus</name>
    <desc><![CDATA[Par Saint Jean les merveilles de la nature dans une boucle magnifique.]]></desc>
  </metadata>
  <wpt lat="44.4789" lon="4.09974">
    <ele>480.69</ele>
    <name><![CDATA[0000047]]></name>
    <desc><![CDATA[]]></desc>
    <type><![CDATA[Point de départ]]></type>
  </wpt>
  <wpt lat="44.47896" lon="4.09976">
    <ele>471.94</ele>
    <name><![CDATA[0000048]]></name>
    <desc><![CDATA[<br /><h3>Nom: Segment 1</h3><br /><p>Temps de départ: 03/16/2014 09:20</p><p>Temps d'arrivée: 03/16/2014 14:29</p><p>Distance: 9,5 km (05:09)</p><p>Temps déplacement: 02:32</p><p>Vitesse moyenne: 1,8 km/h</p><p>Vitesse moyenne: 3,7 km/h</p><p>Vitess Max.: 19,4 km/h</p><p>Altitude minimale: 343 m</p><p>Altitude maximale: 644 m</p><p>Vitesse d'élévation: 257,3 m/h</p><p>Vitesse de descente: -175,6 m/h</p><p>Gain Altitude: 505 m</p><p>Perte Altitude: -509 m</p><p>Temps d'élévation: 01:57</p><p>Temps de descente: 02:54</p>]]></desc>
    <type><![CDATA[Point d'arrivée]]></type>
  </wpt>
  <trk>
    <name><![CDATA[zzz]]></name>
    <desc><![CDATA[<h1>OruxMaps</h1><br /><hr align="center" width="480" style="height: 2px; width: 517px"/><h2>Nom: zzz</h2><br /><p>Temps de départ: 03/16/2014 09:20</p><p>Temps d'arrivée: 03/16/2014 14:29</p><p>Distance: 9,5 km (05:09)</p><p>Temps déplacement: 02:32</p><p>Vitesse moyenne: 1,8 km/h</p><p>Vitesse moyenne: 3,8 km/h</p><p>Vitess Max.: 19,4 km/h</p><p>Altitude minimale: 343 m</p><p>Altitude maximale: 644 m</p><p>Vitesse d'élévation: 257,3 m/h</p><p>Vitesse de descente: -175,6 m/h</p><p>Gain Altitude: 505 m</p><p>Perte Altitude: -509 m</p><p>Temps d'élévation: 01:57</p><p>Temps de descente: 02:54</p><hr align="center" width="480" style="height: 2px; width: 517px"/>]]></desc>
    <trkseg>
      <trkpt lat="44.4789" lon="4.09974">
        <ele>480.69</ele>
        <time>2014-03-16T08:20:01Z</time>
      </trkpt>
      <trkpt lat="44.47908" lon="4.09984">
        <ele>484.73</ele>
        <time>2014-03-16T08:20:35Z</time>
      </trkpt>
      <trkpt lat="44.47925" lon="4.0999">
        <ele>483.16</ele>
        <time>2014-03-16T08:20:49Z</time>
      </trkpt>
      <trkpt lat="44.47907" lon="4.09992">
        <ele>481.72</ele>
        <time>2014-03-16T08:21:24Z</time>
      </trkpt>
      <trkpt lat="44.47889" lon="4.09985">
        <ele>483.67</ele>
        <time>2014-03-16T08:21:40Z</time>
      </trkpt>
      <trkpt lat="44.47872" lon="4.09978">
        <ele>481.66</ele>
        <time>2014-03-16T08:21:59Z</time>
      </trkpt>
      <trkpt lat="44.47855" lon="4.09991">
        <ele>485.66</ele>
        <time>2014-03-16T08:22:18Z</time>
      </trkpt>
      <trkpt lat="44.47843" lon="4.1001">
        <ele>482.89</ele>
        <time>2014-03-16T08:22:33Z</time>
      </trkpt>
      <trkpt lat="44.47861" lon="4.10013">
        <ele>475.62</ele>
        <time>2014-03-16T08:22:49Z</time>
      </trkpt>
      <trkpt lat="44.47874" lon="4.10033">
        <ele>473.93</ele>
        <time>2014-03-16T08:23:20Z</time>
      </trkpt>
      <trkpt lat="44.47883" lon="4.10055">
        <ele>472.14</ele>
        <time>2014-03-16T08:23:40Z</time>
      </trkpt>
      <trkpt lat="44.47899" lon="4.10067">
        <ele>461.67</ele>
        <time>2014-03-16T08:24:01Z</time>
      </trkpt>
      <trkpt lat="44.47916" lon="4.10078">
        <ele>456.14</ele>
        <time>2014-03-16T08:24:25Z</time>
      </trkpt>
      <trkpt lat="44.47934" lon="4.10081">
        <ele>447.2</ele>
        <time>2014-03-16T08:24:45Z</time>
      </trkpt>
      <trkpt lat="44.47952" lon="4.10089">
        <ele>449.75</ele>
        <time>2014-03-16T08:25:01Z</time>
      </trkpt>
      <trkpt lat="44.47969" lon="4.10099">
        <ele>447.58</ele>
        <time>2014-03-16T08:25:59Z</time>
      </trkpt>
      <trkpt lat="44.47985" lon="4.10113">
        <ele>443.91</ele>
        <time>2014-03-16T08:26:21Z</time>
      </trkpt>
      <trkpt lat="44.47985" lon="4.10139">
        <ele>441.19</ele>
        <time>2014-03-16T08:26:58Z</time>
      </trkpt>
      <trkpt lat="44.48004" lon="4.10137">
        <ele>439.5</ele>
        <time>2014-03-16T08:27:21Z</time>
      </trkpt>
      <trkpt lat="44.4802" lon="4.10124">
        <ele>431.26</ele>
        <time>2014-03-16T08:27:54Z</time>
      </trkpt>
      <trkpt lat="44.48034" lon="4.10108">
        <ele>427.3</ele>
        <time>2014-03-16T08:28:16Z</time>
      </trkpt>
      <trkpt lat="44.48049" lon="4.1009">
        <ele>427.75</ele>
        <time>2014-03-16T08:28:37Z</time>
      </trkpt>
      <trkpt lat="44.4806" lon="4.10068">
        <ele>424.06</ele>
        <time>2014-03-16T08:29:12Z</time>
      </trkpt>
      <trkpt lat="44.48078" lon="4.10057">
        <ele>420.69</ele>
        <time>2014-03-16T08:29:22Z</time>
      </trkpt>
      <trkpt lat="44.48086" lon="4.10034">
        <ele>415.35</ele>
        <time>2014-03-16T08:29:47Z</time>
      </trkpt>
      <trkpt lat="44.48084" lon="4.1006">
        <ele>401.92</ele>
        <time>2014-03-16T08:30:55Z</time>
      </trkpt>
      <trkpt lat="44.48103" lon="4.1006">
        <ele>398.19</ele>
        <time>2014-03-16T08:31:45Z</time>
      </trkpt>
      <trkpt lat="44.48117" lon="4.10042">
        <ele>397.57</ele>
        <time>2014-03-16T08:32:32Z</time>
      </trkpt>
      <trkpt lat="44.48134" lon="4.10033">
        <ele>393.36</ele>
        <time>2014-03-16T08:32:48Z</time>
      </trkpt>
      <trkpt lat="44.48151" lon="4.10024">
        <ele>393.76</ele>
        <time>2014-03-16T08:33:12Z</time>
      </trkpt>
      <trkpt lat="44.48168" lon="4.10015">
        <ele>386.62</ele>
        <time>2014-03-16T08:33:56Z</time>
      </trkpt>
      <trkpt lat="44.48176" lon="4.10039">
        <ele>376.64</ele>
        <time>2014-03-16T08:35:40Z</time>
      </trkpt>
      <trkpt lat="44.48194" lon="4.10041">
        <ele>381.77</ele>
        <time>2014-03-16T08:36:11Z</time>
      </trkpt>
      <trkpt lat="44.48212" lon="4.10032">
        <ele>383.46</ele>
        <time>2014-03-16T08:36:34Z</time>
      </trkpt>
      <trkpt lat="44.48229" lon="4.10042">
        <ele>393.66</ele>
        <time>2014-03-16T08:37:59Z</time>
      </trkpt>
      <trkpt lat="44.48216" lon="4.1006">
        <ele>404.77</ele>
        <time>2014-03-16T08:39:01Z</time>
      </trkpt>
      <trkpt lat="44.48205" lon="4.1008">
        <ele>401.12</ele>
        <time>2014-03-16T08:39:19Z</time>
      </trkpt>
      <trkpt lat="44.48198" lon="4.10104">
        <ele>397.61</ele>
        <time>2014-03-16T08:39:37Z</time>
      </trkpt>
      <trkpt lat="44.4819" lon="4.10128">
        <ele>402.42</ele>
        <time>2014-03-16T08:39:55Z</time>
      </trkpt>
      <trkpt lat="44.4819" lon="4.10154">
        <ele>396.22</ele>
        <time>2014-03-16T08:40:12Z</time>
      </trkpt>
      <trkpt lat="44.48186" lon="4.10178">
        <ele>397.71</ele>
        <time>2014-03-16T08:40:56Z</time>
      </trkpt>
      <trkpt lat="44.48177" lon="4.10201">
        <ele>395.94</ele>
        <time>2014-03-16T08:41:14Z</time>
      </trkpt>
      <trkpt lat="44.48175" lon="4.10227">
        <ele>394.85</ele>
        <time>2014-03-16T08:41:29Z</time>
      </trkpt>
      <trkpt lat="44.48161" lon="4.10246">
        <ele>387.94</ele>
        <time>2014-03-16T08:41:52Z</time>
      </trkpt>
      <trkpt lat="44.48143" lon="4.10252">
        <ele>389.26</ele>
        <time>2014-03-16T08:42:12Z</time>
      </trkpt>
      <trkpt lat="44.48131" lon="4.10271">
        <ele>391.59</ele>
        <time>2014-03-16T08:42:31Z</time>
      </trkpt>
      <trkpt lat="44.48121" lon="4.10293">
        <ele>384.38</ele>
        <time>2014-03-16T08:42:56Z</time>
      </trkpt>
      <trkpt lat="44.48108" lon="4.10311">
        <ele>381.19</ele>
        <time>2014-03-16T08:43:14Z</time>
      </trkpt>
      <trkpt lat="44.48093" lon="4.10328">
        <ele>378.39</ele>
        <time>2014-03-16T08:43:33Z</time>
      </trkpt>
      <trkpt lat="44.48075" lon="4.10336">
        <ele>380.61</ele>
        <time>2014-03-16T08:43:52Z</time>
      </trkpt>
      <trkpt lat="44.48058" lon="4.10343">
        <ele>379.73</ele>
        <time>2014-03-16T08:44:12Z</time>
      </trkpt>
      <trkpt lat="44.4804" lon="4.10346">
        <ele>378.37</ele>
        <time>2014-03-16T08:44:36Z</time>
      </trkpt>
      <trkpt lat="44.48022" lon="4.10355">
        <ele>374.84</ele>
        <time>2014-03-16T08:44:55Z</time>
      </trkpt>
      <trkpt lat="44.48006" lon="4.10369">
        <ele>369.75</ele>
        <time>2014-03-16T08:45:18Z</time>
      </trkpt>
      <trkpt lat="44.47992" lon="4.10386">
        <ele>370.39</ele>
        <time>2014-03-16T08:45:36Z</time>
      </trkpt>
      <trkpt lat="44.4798" lon="4.10404">
        <ele>371.42</ele>
        <time>2014-03-16T08:45:54Z</time>
      </trkpt>
      <trkpt lat="44.47965" lon="4.10419">
        <ele>373.94</ele>
        <time>2014-03-16T08:46:13Z</time>
      </trkpt>
      <trkpt lat="44.47951" lon="4.10437">
        <ele>371.26</ele>
        <time>2014-03-16T08:46:31Z</time>
      </trkpt>
      <trkpt lat="44.47934" lon="4.10446">
        <ele>375.38</ele>
        <time>2014-03-16T08:46:48Z</time>
      </trkpt>
      <trkpt lat="44.47917" lon="4.10457">
        <ele>365.81</ele>
        <time>2014-03-16T08:47:17Z</time>
      </trkpt>
      <trkpt lat="44.47899" lon="4.10467">
        <ele>364.81</ele>
        <time>2014-03-16T08:47:35Z</time>
      </trkpt>
      <trkpt lat="44.47882" lon="4.10477">
        <ele>361.43</ele>
        <time>2014-03-16T08:47:55Z</time>
      </trkpt>
      <trkpt lat="44.47871" lon="4.10496">
        <ele>358.42</ele>
        <time>2014-03-16T08:48:12Z</time>
      </trkpt>
      <trkpt lat="44.47862" lon="4.10518">
        <ele>351.57</ele>
        <time>2014-03-16T08:48:38Z</time>
      </trkpt>
      <trkpt lat="44.47851" lon="4.10538">
        <ele>351.27</ele>
        <time>2014-03-16T08:48:58Z</time>
      </trkpt>
      <trkpt lat="44.47836" lon="4.10553">
        <ele>348.77</ele>
        <time>2014-03-16T08:50:00Z</time>
      </trkpt>
      <trkpt lat="44.47819" lon="4.10561">
        <ele>343.59</ele>
        <time>2014-03-16T08:50:29Z</time>
      </trkpt>
      <trkpt lat="44.47806" lon="4.1058">
        <ele>349.92</ele>
        <time>2014-03-16T08:50:53Z</time>
      </trkpt>
      <trkpt lat="44.47798" lon="4.10603">
        <ele>351.31</ele>
        <time>2014-03-16T08:51:21Z</time>
      </trkpt>
      <trkpt lat="44.47794" lon="4.10628">
        <ele>351.44</ele>
        <time>2014-03-16T08:51:43Z</time>
      </trkpt>
      <trkpt lat="44.47782" lon="4.10647">
        <ele>355.92</ele>
        <time>2014-03-16T08:52:10Z</time>
      </trkpt>
      <trkpt lat="44.47799" lon="4.10656">
        <ele>358.44</ele>
        <time>2014-03-16T08:52:39Z</time>
      </trkpt>
      <trkpt lat="44.47817" lon="4.10646">
        <ele>370.68</ele>
        <time>2014-03-16T08:53:17Z</time>
      </trkpt>
      <trkpt lat="44.47815" lon="4.10671">
        <ele>385.69</ele>
        <time>2014-03-16T08:57:02Z</time>
      </trkpt>
      <trkpt lat="44.47833" lon="4.10662">
        <ele>385.84</ele>
        <time>2014-03-16T08:57:18Z</time>
      </trkpt>
      <trkpt lat="44.47851" lon="4.10664">
        <ele>387.05</ele>
        <time>2014-03-16T08:57:42Z</time>
      </trkpt>
      <trkpt lat="44.47862" lon="4.10684">
        <ele>399.24</ele>
        <time>2014-03-16T08:59:57Z</time>
      </trkpt>
      <trkpt lat="44.47876" lon="4.10701">
        <ele>399.7</ele>
        <time>2014-03-16T09:00:37Z</time>
      </trkpt>
      <trkpt lat="44.47889" lon="4.10717">
        <ele>402.89</ele>
        <time>2014-03-16T09:00:54Z</time>
      </trkpt>
      <trkpt lat="44.47904" lon="4.10733">
        <ele>404.59</ele>
        <time>2014-03-16T09:01:11Z</time>
      </trkpt>
      <trkpt lat="44.47916" lon="4.10751">
        <ele>405.22</ele>
        <time>2014-03-16T09:01:40Z</time>
      </trkpt>
      <trkpt lat="44.47898" lon="4.10744">
        <ele>411.68</ele>
        <time>2014-03-16T09:02:05Z</time>
      </trkpt>
      <trkpt lat="44.47879" lon="4.10745">
        <ele>415.2</ele>
        <time>2014-03-16T09:02:28Z</time>
      </trkpt>
      <trkpt lat="44.47861" lon="4.10748">
        <ele>415.87</ele>
        <time>2014-03-16T09:02:56Z</time>
      </trkpt>
      <trkpt lat="44.47849" lon="4.10766">
        <ele>417.72</ele>
        <time>2014-03-16T09:03:18Z</time>
      </trkpt>
      <trkpt lat="44.47834" lon="4.10782">
        <ele>427.15</ele>
        <time>2014-03-16T09:03:40Z</time>
      </trkpt>
      <trkpt lat="44.47827" lon="4.10805">
        <ele>426.06</ele>
        <time>2014-03-16T09:04:02Z</time>
      </trkpt>
      <trkpt lat="44.47816" lon="4.10826">
        <ele>429.09</ele>
        <time>2014-03-16T09:04:23Z</time>
      </trkpt>
      <trkpt lat="44.47814" lon="4.10852">
        <ele>430.45</ele>
        <time>2014-03-16T09:04:45Z</time>
      </trkpt>
      <trkpt lat="44.47824" lon="4.10873">
        <ele>430.75</ele>
        <time>2014-03-16T09:05:05Z</time>
      </trkpt>
      <trkpt lat="44.47833" lon="4.10851">
        <ele>438.41</ele>
        <time>2014-03-16T09:05:56Z</time>
      </trkpt>
      <trkpt lat="44.47849" lon="4.10838">
        <ele>441.86</ele>
        <time>2014-03-16T09:06:21Z</time>
      </trkpt>
      <trkpt lat="44.47867" lon="4.10832">
        <ele>441.95</ele>
        <time>2014-03-16T09:06:42Z</time>
      </trkpt>
      <trkpt lat="44.47883" lon="4.10845">
        <ele>447.57</ele>
        <time>2014-03-16T09:07:36Z</time>
      </trkpt>
      <trkpt lat="44.47899" lon="4.10856">
        <ele>445.07</ele>
        <time>2014-03-16T09:08:00Z</time>
      </trkpt>
      <trkpt lat="44.47914" lon="4.10871">
        <ele>454.02</ele>
        <time>2014-03-16T09:08:27Z</time>
      </trkpt>
      <trkpt lat="44.47928" lon="4.10886">
        <ele>456.48</ele>
        <time>2014-03-16T09:08:44Z</time>
      </trkpt>
      <trkpt lat="44.47942" lon="4.10904">
        <ele>459.21</ele>
        <time>2014-03-16T09:09:06Z</time>
      </trkpt>
      <trkpt lat="44.47958" lon="4.10919">
        <ele>467.17</ele>
        <time>2014-03-16T09:09:44Z</time>
      </trkpt>
      <trkpt lat="44.47974" lon="4.10933">
        <ele>474.9</ele>
        <time>2014-03-16T09:10:03Z</time>
      </trkpt>
      <trkpt lat="44.47988" lon="4.1095">
        <ele>474.63</ele>
        <time>2014-03-16T09:10:22Z</time>
      </trkpt>
      <trkpt lat="44.48004" lon="4.10964">
        <ele>471.81</ele>
        <time>2014-03-16T09:11:01Z</time>
      </trkpt>
      <trkpt lat="44.48023" lon="4.10965">
        <ele>457.69</ele>
        <time>2014-03-16T09:23:02Z</time>
      </trkpt>
      <trkpt lat="44.48041" lon="4.10966">
        <ele>449.97</ele>
        <time>2014-03-16T09:23:23Z</time>
      </trkpt>
      <trkpt lat="44.48061" lon="4.10968">
        <ele>449.02</ele>
        <time>2014-03-16T09:23:31Z</time>
      </trkpt>
      <trkpt lat="44.48078" lon="4.1098">
        <ele>450.96</ele>
        <time>2014-03-16T09:23:44Z</time>
      </trkpt>
      <trkpt lat="44.48096" lon="4.10987">
        <ele>453.32</ele>
        <time>2014-03-16T09:24:13Z</time>
      </trkpt>
      <trkpt lat="44.48114" lon="4.10986">
        <ele>455.51</ele>
        <time>2014-03-16T09:24:29Z</time>
      </trkpt>
      <trkpt lat="44.4813" lon="4.10973">
        <ele>460.77</ele>
        <time>2014-03-16T09:24:45Z</time>
      </trkpt>
      <trkpt lat="44.48147" lon="4.10962">
        <ele>462.6</ele>
        <time>2014-03-16T09:25:06Z</time>
      </trkpt>
      <trkpt lat="44.48165" lon="4.10962">
        <ele>460.86</ele>
        <time>2014-03-16T09:25:23Z</time>
      </trkpt>
      <trkpt lat="44.48184" lon="4.10957">
        <ele>461.27</ele>
        <time>2014-03-16T09:25:42Z</time>
      </trkpt>
      <trkpt lat="44.48202" lon="4.10953">
        <ele>458.78</ele>
        <time>2014-03-16T09:26:01Z</time>
      </trkpt>
      <trkpt lat="44.4822" lon="4.10947">
        <ele>461.23</ele>
        <time>2014-03-16T09:26:26Z</time>
      </trkpt>
      <trkpt lat="44.48237" lon="4.10937">
        <ele>454.57</ele>
        <time>2014-03-16T09:27:00Z</time>
      </trkpt>
      <trkpt lat="44.48255" lon="4.10934">
        <ele>449.73</ele>
        <time>2014-03-16T09:27:15Z</time>
      </trkpt>
      <trkpt lat="44.48274" lon="4.10937">
        <ele>440.8</ele>
        <time>2014-03-16T09:27:32Z</time>
      </trkpt>
      <trkpt lat="44.48291" lon="4.10947">
        <ele>450</ele>
        <time>2014-03-16T09:28:10Z</time>
      </trkpt>
      <trkpt lat="44.48309" lon="4.10957">
        <ele>450.57</ele>
        <time>2014-03-16T09:28:40Z</time>
      </trkpt>
      <trkpt lat="44.48328" lon="4.10965">
        <ele>444.98</ele>
        <time>2014-03-16T09:28:56Z</time>
      </trkpt>
      <trkpt lat="44.48346" lon="4.10967">
        <ele>449.02</ele>
        <time>2014-03-16T09:29:09Z</time>
      </trkpt>
      <trkpt lat="44.48361" lon="4.10982">
        <ele>453</ele>
        <time>2014-03-16T09:29:32Z</time>
      </trkpt>
      <trkpt lat="44.48379" lon="4.10987">
        <ele>454.52</ele>
        <time>2014-03-16T09:30:11Z</time>
      </trkpt>
      <trkpt lat="44.48395" lon="4.11001">
        <ele>451.94</ele>
        <time>2014-03-16T09:30:25Z</time>
      </trkpt>
      <trkpt lat="44.48407" lon="4.11019">
        <ele>445.49</ele>
        <time>2014-03-16T09:30:44Z</time>
      </trkpt>
      <trkpt lat="44.48416" lon="4.11042">
        <ele>451.19</ele>
        <time>2014-03-16T09:31:11Z</time>
      </trkpt>
      <trkpt lat="44.48427" lon="4.11062">
        <ele>436.73</ele>
        <time>2014-03-16T09:31:40Z</time>
      </trkpt>
      <trkpt lat="44.48445" lon="4.11066">
        <ele>437.63</ele>
        <time>2014-03-16T09:32:03Z</time>
      </trkpt>
      <trkpt lat="44.48463" lon="4.11074">
        <ele>436.1</ele>
        <time>2014-03-16T09:32:19Z</time>
      </trkpt>
      <trkpt lat="44.48477" lon="4.11091">
        <ele>438.32</ele>
        <time>2014-03-16T09:32:36Z</time>
      </trkpt>
      <trkpt lat="44.48485" lon="4.11114">
        <ele>440.69</ele>
        <time>2014-03-16T09:33:38Z</time>
      </trkpt>
      <trkpt lat="44.48483" lon="4.11142">
        <ele>436.35</ele>
        <time>2014-03-16T09:33:47Z</time>
      </trkpt>
      <trkpt lat="44.48499" lon="4.11155">
        <ele>437.65</ele>
        <time>2014-03-16T09:33:57Z</time>
      </trkpt>
      <trkpt lat="44.48517" lon="4.1116">
        <ele>431.68</ele>
        <time>2014-03-16T09:34:49Z</time>
      </trkpt>
      <trkpt lat="44.48536" lon="4.11159">
        <ele>432.67</ele>
        <time>2014-03-16T09:35:23Z</time>
      </trkpt>
      <trkpt lat="44.48539" lon="4.11133">
        <ele>432.17</ele>
        <time>2014-03-16T09:35:51Z</time>
      </trkpt>
      <trkpt lat="44.48535" lon="4.11108">
        <ele>428.5</ele>
        <time>2014-03-16T09:36:24Z</time>
      </trkpt>
      <trkpt lat="44.48544" lon="4.11086">
        <ele>437.11</ele>
        <time>2014-03-16T09:36:51Z</time>
      </trkpt>
      <trkpt lat="44.48545" lon="4.1106">
        <ele>442.94</ele>
        <time>2014-03-16T09:38:10Z</time>
      </trkpt>
      <trkpt lat="44.48543" lon="4.11034">
        <ele>444.14</ele>
        <time>2014-03-16T09:38:27Z</time>
      </trkpt>
      <trkpt lat="44.48554" lon="4.11012">
        <ele>463.19</ele>
        <time>2014-03-16T09:40:07Z</time>
      </trkpt>
      <trkpt lat="44.48553" lon="4.10987">
        <ele>481.55</ele>
        <time>2014-03-16T09:41:24Z</time>
      </trkpt>
      <trkpt lat="44.48571" lon="4.10985">
        <ele>490.44</ele>
        <time>2014-03-16T09:42:59Z</time>
      </trkpt>
      <trkpt lat="44.48589" lon="4.10983">
        <ele>498.38</ele>
        <time>2014-03-16T09:44:33Z</time>
      </trkpt>
      <trkpt lat="44.48608" lon="4.1098">
        <ele>500.28</ele>
        <time>2014-03-16T09:45:12Z</time>
      </trkpt>
      <trkpt lat="44.48621" lon="4.10964">
        <ele>497.81</ele>
        <time>2014-03-16T09:47:13Z</time>
      </trkpt>
      <trkpt lat="44.48633" lon="4.10944">
        <ele>499.52</ele>
        <time>2014-03-16T09:47:39Z</time>
      </trkpt>
      <trkpt lat="44.48641" lon="4.1092">
        <ele>513.7</ele>
        <time>2014-03-16T09:48:46Z</time>
      </trkpt>
      <trkpt lat="44.48646" lon="4.10894">
        <ele>517.52</ele>
        <time>2014-03-16T09:49:02Z</time>
      </trkpt>
      <trkpt lat="44.48649" lon="4.10869">
        <ele>522.08</ele>
        <time>2014-03-16T09:49:25Z</time>
      </trkpt>
      <trkpt lat="44.48649" lon="4.10843">
        <ele>515.14</ele>
        <time>2014-03-16T09:49:45Z</time>
      </trkpt>
      <trkpt lat="44.48648" lon="4.10818">
        <ele>522.59</ele>
        <time>2014-03-16T09:50:06Z</time>
      </trkpt>
      <trkpt lat="44.48653" lon="4.10793">
        <ele>520.23</ele>
        <time>2014-03-16T09:50:45Z</time>
      </trkpt>
      <trkpt lat="44.48667" lon="4.1081">
        <ele>529.66</ele>
        <time>2014-03-16T09:51:46Z</time>
      </trkpt>
      <trkpt lat="44.48682" lon="4.10826">
        <ele>536.06</ele>
        <time>2014-03-16T09:52:20Z</time>
      </trkpt>
      <trkpt lat="44.48692" lon="4.10847">
        <ele>540.16</ele>
        <time>2014-03-16T09:52:41Z</time>
      </trkpt>
      <trkpt lat="44.48702" lon="4.10868">
        <ele>542.81</ele>
        <time>2014-03-16T09:53:12Z</time>
      </trkpt>
      <trkpt lat="44.48714" lon="4.10888">
        <ele>548.81</ele>
        <time>2014-03-16T09:54:06Z</time>
      </trkpt>
      <trkpt lat="44.48729" lon="4.10903">
        <ele>547.82</ele>
        <time>2014-03-16T09:56:22Z</time>
      </trkpt>
      <trkpt lat="44.48735" lon="4.10879">
        <ele>543.76</ele>
        <time>2014-03-16T09:57:56Z</time>
      </trkpt>
      <trkpt lat="44.48739" lon="4.10854">
        <ele>548.65</ele>
        <time>2014-03-16T09:58:36Z</time>
      </trkpt>
      <trkpt lat="44.48746" lon="4.1083">
        <ele>555.09</ele>
        <time>2014-03-16T09:59:03Z</time>
      </trkpt>
      <trkpt lat="44.48754" lon="4.10807">
        <ele>565.69</ele>
        <time>2014-03-16T10:02:19Z</time>
      </trkpt>
      <trkpt lat="44.48749" lon="4.10782">
        <ele>558.94</ele>
        <time>2014-03-16T10:02:36Z</time>
      </trkpt>
      <trkpt lat="44.48755" lon="4.10757">
        <ele>553.31</ele>
        <time>2014-03-16T10:03:15Z</time>
      </trkpt>
      <trkpt lat="44.48763" lon="4.10734">
        <ele>556.89</ele>
        <time>2014-03-16T10:03:30Z</time>
      </trkpt>
      <trkpt lat="44.48774" lon="4.10714">
        <ele>567.41</ele>
        <time>2014-03-16T10:04:51Z</time>
      </trkpt>
      <trkpt lat="44.48789" lon="4.10698">
        <ele>570.31</ele>
        <time>2014-03-16T10:05:55Z</time>
      </trkpt>
      <trkpt lat="44.48797" lon="4.10675">
        <ele>575.09</ele>
        <time>2014-03-16T10:06:15Z</time>
      </trkpt>
      <trkpt lat="44.48806" lon="4.10652">
        <ele>576.92</ele>
        <time>2014-03-16T10:06:35Z</time>
      </trkpt>
      <trkpt lat="44.48808" lon="4.10627">
        <ele>580.62</ele>
        <time>2014-03-16T10:06:57Z</time>
      </trkpt>
      <trkpt lat="44.48808" lon="4.106">
        <ele>584.41</ele>
        <time>2014-03-16T10:07:19Z</time>
      </trkpt>
      <trkpt lat="44.48801" lon="4.10576">
        <ele>586.93</ele>
        <time>2014-03-16T10:07:35Z</time>
      </trkpt>
      <trkpt lat="44.48793" lon="4.10553">
        <ele>589.57</ele>
        <time>2014-03-16T10:07:53Z</time>
      </trkpt>
      <trkpt lat="44.48778" lon="4.10537">
        <ele>593.91</ele>
        <time>2014-03-16T10:13:04Z</time>
      </trkpt>
      <trkpt lat="44.48763" lon="4.10518">
        <ele>589.64</ele>
        <time>2014-03-16T10:13:08Z</time>
      </trkpt>
      <trkpt lat="44.48752" lon="4.10499">
        <ele>586.01</ele>
        <time>2014-03-16T10:13:23Z</time>
      </trkpt>
      <trkpt lat="44.48742" lon="4.10477">
        <ele>583.11</ele>
        <time>2014-03-16T10:13:41Z</time>
      </trkpt>
      <trkpt lat="44.48734" lon="4.10454">
        <ele>585.36</ele>
        <time>2014-03-16T10:14:01Z</time>
      </trkpt>
      <trkpt lat="44.48726" lon="4.10431">
        <ele>582</ele>
        <time>2014-03-16T10:14:18Z</time>
      </trkpt>
      <trkpt lat="44.48717" lon="4.10409">
        <ele>578.87</ele>
        <time>2014-03-16T10:14:35Z</time>
      </trkpt>
      <trkpt lat="44.48705" lon="4.10389">
        <ele>586.07</ele>
        <time>2014-03-16T10:14:54Z</time>
      </trkpt>
      <trkpt lat="44.48714" lon="4.10366">
        <ele>586.69</ele>
        <time>2014-03-16T10:15:50Z</time>
      </trkpt>
      <trkpt lat="44.48731" lon="4.10355">
        <ele>591.43</ele>
        <time>2014-03-16T10:16:08Z</time>
      </trkpt>
      <trkpt lat="44.48749" lon="4.10349">
        <ele>591.31</ele>
        <time>2014-03-16T10:16:27Z</time>
      </trkpt>
      <trkpt lat="44.48765" lon="4.10339">
        <ele>598.55</ele>
        <time>2014-03-16T10:16:47Z</time>
      </trkpt>
      <trkpt lat="44.48781" lon="4.10324">
        <ele>597.89</ele>
        <time>2014-03-16T10:17:07Z</time>
      </trkpt>
      <trkpt lat="44.48797" lon="4.1031">
        <ele>596.98</ele>
        <time>2014-03-16T10:17:25Z</time>
      </trkpt>
      <trkpt lat="44.48815" lon="4.10306">
        <ele>601.87</ele>
        <time>2014-03-16T10:17:46Z</time>
      </trkpt>
      <trkpt lat="44.4883" lon="4.10291">
        <ele>603.17</ele>
        <time>2014-03-16T10:18:08Z</time>
      </trkpt>
      <trkpt lat="44.48839" lon="4.10269">
        <ele>609.22</ele>
        <time>2014-03-16T10:18:24Z</time>
      </trkpt>
      <trkpt lat="44.48839" lon="4.10242">
        <ele>608.16</ele>
        <time>2014-03-16T10:23:34Z</time>
      </trkpt>
      <trkpt lat="44.48843" lon="4.10217">
        <ele>610.23</ele>
        <time>2014-03-16T10:23:50Z</time>
      </trkpt>
      <trkpt lat="44.48851" lon="4.10194">
        <ele>608.81</ele>
        <time>2014-03-16T10:24:07Z</time>
      </trkpt>
      <trkpt lat="44.48855" lon="4.10168">
        <ele>605.06</ele>
        <time>2014-03-16T10:24:24Z</time>
      </trkpt>
      <trkpt lat="44.48861" lon="4.10144">
        <ele>601.36</ele>
        <time>2014-03-16T10:24:44Z</time>
      </trkpt>
      <trkpt lat="44.48861" lon="4.10118">
        <ele>603.09</ele>
        <time>2014-03-16T10:24:56Z</time>
      </trkpt>
      <trkpt lat="44.4886" lon="4.10092">
        <ele>597.08</ele>
        <time>2014-03-16T10:25:16Z</time>
      </trkpt>
      <trkpt lat="44.48863" lon="4.10066">
        <ele>600.69</ele>
        <time>2014-03-16T10:25:33Z</time>
      </trkpt>
      <trkpt lat="44.48863" lon="4.1004">
        <ele>603.02</ele>
        <time>2014-03-16T10:25:48Z</time>
      </trkpt>
      <trkpt lat="44.48873" lon="4.10018">
        <ele>613.61</ele>
        <time>2014-03-16T10:26:05Z</time>
      </trkpt>
      <trkpt lat="44.48878" lon="4.09993">
        <ele>617.37</ele>
        <time>2014-03-16T10:26:20Z</time>
      </trkpt>
      <trkpt lat="44.48887" lon="4.09972">
        <ele>617.28</ele>
        <time>2014-03-16T10:26:40Z</time>
      </trkpt>
      <trkpt lat="44.48896" lon="4.0995">
        <ele>613.45</ele>
        <time>2014-03-16T10:27:09Z</time>
      </trkpt>
      <trkpt lat="44.48915" lon="4.09948">
        <ele>620.57</ele>
        <time>2014-03-16T10:27:26Z</time>
      </trkpt>
      <trkpt lat="44.4893" lon="4.09965">
        <ele>626.27</ele>
        <time>2014-03-16T10:27:43Z</time>
      </trkpt>
      <trkpt lat="44.48939" lon="4.09987">
        <ele>631.16</ele>
        <time>2014-03-16T10:27:58Z</time>
      </trkpt>
      <trkpt lat="44.48954" lon="4.10003">
        <ele>628.75</ele>
        <time>2014-03-16T10:28:16Z</time>
      </trkpt>
      <trkpt lat="44.4897" lon="4.10015">
        <ele>626.62</ele>
        <time>2014-03-16T10:28:29Z</time>
      </trkpt>
      <trkpt lat="44.48988" lon="4.10019">
        <ele>628.84</ele>
        <time>2014-03-16T10:28:46Z</time>
      </trkpt>
      <trkpt lat="44.49005" lon="4.1001">
        <ele>632.64</ele>
        <time>2014-03-16T10:29:01Z</time>
      </trkpt>
      <trkpt lat="44.4902" lon="4.09995">
        <ele>629.48</ele>
        <time>2014-03-16T10:29:20Z</time>
      </trkpt>
      <trkpt lat="44.49034" lon="4.09978">
        <ele>623.93</ele>
        <time>2014-03-16T10:29:37Z</time>
      </trkpt>
      <trkpt lat="44.4905" lon="4.09966">
        <ele>620.05</ele>
        <time>2014-03-16T10:29:56Z</time>
      </trkpt>
      <trkpt lat="44.49068" lon="4.09973">
        <ele>631.32</ele>
        <time>2014-03-16T10:30:15Z</time>
      </trkpt>
      <trkpt lat="44.49087" lon="4.09969">
        <ele>631.71</ele>
        <time>2014-03-16T10:30:35Z</time>
      </trkpt>
      <trkpt lat="44.49104" lon="4.09962">
        <ele>633.17</ele>
        <time>2014-03-16T10:30:50Z</time>
      </trkpt>
      <trkpt lat="44.49122" lon="4.0997">
        <ele>624.57</ele>
        <time>2014-03-16T10:31:12Z</time>
      </trkpt>
      <trkpt lat="44.4914" lon="4.09966">
        <ele>616.99</ele>
        <time>2014-03-16T10:31:31Z</time>
      </trkpt>
      <trkpt lat="44.49159" lon="4.09967">
        <ele>613</ele>
        <time>2014-03-16T10:31:49Z</time>
      </trkpt>
      <trkpt lat="44.49178" lon="4.09966">
        <ele>603.04</ele>
        <time>2014-03-16T10:32:08Z</time>
      </trkpt>
      <trkpt lat="44.49196" lon="4.09963">
        <ele>611.64</ele>
        <time>2014-03-16T10:32:24Z</time>
      </trkpt>
      <trkpt lat="44.49213" lon="4.09956">
        <ele>605.41</ele>
        <time>2014-03-16T10:32:39Z</time>
      </trkpt>
      <trkpt lat="44.49219" lon="4.0993">
        <ele>611.7</ele>
        <time>2014-03-16T10:33:39Z</time>
      </trkpt>
      <trkpt lat="44.49213" lon="4.09903">
        <ele>608.15</ele>
        <time>2014-03-16T10:33:47Z</time>
      </trkpt>
      <trkpt lat="44.49215" lon="4.09878">
        <ele>609.83</ele>
        <time>2014-03-16T10:33:59Z</time>
      </trkpt>
      <trkpt lat="44.49217" lon="4.09853">
        <ele>601.51</ele>
        <time>2014-03-16T10:34:15Z</time>
      </trkpt>
      <trkpt lat="44.49208" lon="4.0983">
        <ele>595.16</ele>
        <time>2014-03-16T10:34:34Z</time>
      </trkpt>
      <trkpt lat="44.49199" lon="4.09807">
        <ele>596.72</ele>
        <time>2014-03-16T10:34:51Z</time>
      </trkpt>
      <trkpt lat="44.49189" lon="4.09785">
        <ele>593.51</ele>
        <time>2014-03-16T10:35:12Z</time>
      </trkpt>
      <trkpt lat="44.4918" lon="4.09763">
        <ele>592.7</ele>
        <time>2014-03-16T10:35:27Z</time>
      </trkpt>
      <trkpt lat="44.49166" lon="4.09745">
        <ele>594.58</ele>
        <time>2014-03-16T10:35:40Z</time>
      </trkpt>
      <trkpt lat="44.49159" lon="4.09722">
        <ele>594.06</ele>
        <time>2014-03-16T10:35:55Z</time>
      </trkpt>
      <trkpt lat="44.49161" lon="4.09696">
        <ele>587.4</ele>
        <time>2014-03-16T10:36:18Z</time>
      </trkpt>
      <trkpt lat="44.49176" lon="4.0968">
        <ele>586.08</ele>
        <time>2014-03-16T10:36:39Z</time>
      </trkpt>
      <trkpt lat="44.4919" lon="4.09664">
        <ele>587.33</ele>
        <time>2014-03-16T10:36:57Z</time>
      </trkpt>
      <trkpt lat="44.49205" lon="4.09648">
        <ele>594.45</ele>
        <time>2014-03-16T10:37:16Z</time>
      </trkpt>
      <trkpt lat="44.49222" lon="4.09638">
        <ele>593.5</ele>
        <time>2014-03-16T10:37:29Z</time>
      </trkpt>
      <trkpt lat="44.49234" lon="4.09619">
        <ele>593.72</ele>
        <time>2014-03-16T10:37:46Z</time>
      </trkpt>
      <trkpt lat="44.49247" lon="4.09601">
        <ele>596.67</ele>
        <time>2014-03-16T10:38:02Z</time>
      </trkpt>
      <trkpt lat="44.49261" lon="4.09584">
        <ele>593.8</ele>
        <time>2014-03-16T10:38:22Z</time>
      </trkpt>
      <trkpt lat="44.49272" lon="4.09562">
        <ele>598.86</ele>
        <time>2014-03-16T10:38:38Z</time>
      </trkpt>
      <trkpt lat="44.49285" lon="4.09545">
        <ele>599.55</ele>
        <time>2014-03-16T10:38:57Z</time>
      </trkpt>
      <trkpt lat="44.49302" lon="4.0953">
        <ele>593.61</ele>
        <time>2014-03-16T10:39:15Z</time>
      </trkpt>
      <trkpt lat="44.49317" lon="4.09518">
        <ele>598.64</ele>
        <time>2014-03-16T10:39:32Z</time>
      </trkpt>
      <trkpt lat="44.49336" lon="4.09512">
        <ele>599.67</ele>
        <time>2014-03-16T10:39:50Z</time>
      </trkpt>
      <trkpt lat="44.49353" lon="4.09519">
        <ele>606.76</ele>
        <time>2014-03-16T10:40:10Z</time>
      </trkpt>
      <trkpt lat="44.49372" lon="4.09515">
        <ele>611.34</ele>
        <time>2014-03-16T10:40:29Z</time>
      </trkpt>
      <trkpt lat="44.4939" lon="4.09521">
        <ele>603.72</ele>
        <time>2014-03-16T10:40:46Z</time>
      </trkpt>
      <trkpt lat="44.49408" lon="4.09514">
        <ele>597.57</ele>
        <time>2014-03-16T10:41:03Z</time>
      </trkpt>
      <trkpt lat="44.49425" lon="4.09504">
        <ele>595.02</ele>
        <time>2014-03-16T10:41:27Z</time>
      </trkpt>
      <trkpt lat="44.49443" lon="4.09496">
        <ele>596.41</ele>
        <time>2014-03-16T10:41:45Z</time>
      </trkpt>
      <trkpt lat="44.49458" lon="4.09482">
        <ele>596.4</ele>
        <time>2014-03-16T10:41:58Z</time>
      </trkpt>
      <trkpt lat="44.49472" lon="4.09465">
        <ele>602.12</ele>
        <time>2014-03-16T10:42:15Z</time>
      </trkpt>
      <trkpt lat="44.49484" lon="4.09445">
        <ele>597.24</ele>
        <time>2014-03-16T10:42:32Z</time>
      </trkpt>
      <trkpt lat="44.49498" lon="4.09428">
        <ele>594.27</ele>
        <time>2014-03-16T10:42:48Z</time>
      </trkpt>
      <trkpt lat="44.49509" lon="4.09407">
        <ele>590.51</ele>
        <time>2014-03-16T10:43:11Z</time>
      </trkpt>
      <trkpt lat="44.49516" lon="4.09382">
        <ele>587.43</ele>
        <time>2014-03-16T10:43:34Z</time>
      </trkpt>
      <trkpt lat="44.49531" lon="4.09367">
        <ele>585.95</ele>
        <time>2014-03-16T10:43:57Z</time>
      </trkpt>
      <trkpt lat="44.49549" lon="4.09361">
        <ele>581.05</ele>
        <time>2014-03-16T10:44:13Z</time>
      </trkpt>
      <trkpt lat="44.49558" lon="4.0934">
        <ele>585.67</ele>
        <time>2014-03-16T10:44:34Z</time>
      </trkpt>
      <trkpt lat="44.49569" lon="4.09319">
        <ele>594.26</ele>
        <time>2014-03-16T10:44:50Z</time>
      </trkpt>
      <trkpt lat="44.4958" lon="4.09298">
        <ele>594.4</ele>
        <time>2014-03-16T10:45:07Z</time>
      </trkpt>
      <trkpt lat="44.49595" lon="4.09283">
        <ele>595.75</ele>
        <time>2014-03-16T10:45:26Z</time>
      </trkpt>
      <trkpt lat="44.49611" lon="4.09271">
        <ele>602.28</ele>
        <time>2014-03-16T10:46:12Z</time>
      </trkpt>
      <trkpt lat="44.49611" lon="4.09245">
        <ele>596.25</ele>
        <time>2014-03-16T10:51:49Z</time>
      </trkpt>
      <trkpt lat="44.49594" lon="4.09234">
        <ele>595.93</ele>
        <time>2014-03-16T10:52:20Z</time>
      </trkpt>
      <trkpt lat="44.49577" lon="4.09227">
        <ele>595.98</ele>
        <time>2014-03-16T10:52:41Z</time>
      </trkpt>
      <trkpt lat="44.49559" lon="4.0922">
        <ele>597.54</ele>
        <time>2014-03-16T10:53:04Z</time>
      </trkpt>
      <trkpt lat="44.4954" lon="4.09222">
        <ele>593.37</ele>
        <time>2014-03-16T10:53:34Z</time>
      </trkpt>
      <trkpt lat="44.49523" lon="4.09215">
        <ele>598.26</ele>
        <time>2014-03-16T10:53:56Z</time>
      </trkpt>
      <trkpt lat="44.49504" lon="4.09214">
        <ele>604.27</ele>
        <time>2014-03-16T10:54:25Z</time>
      </trkpt>
      <trkpt lat="44.49486" lon="4.0921">
        <ele>605.15</ele>
        <time>2014-03-16T10:54:44Z</time>
      </trkpt>
      <trkpt lat="44.49472" lon="4.09192">
        <ele>610.39</ele>
        <time>2014-03-16T10:55:07Z</time>
      </trkpt>
      <trkpt lat="44.49472" lon="4.09166">
        <ele>616.22</ele>
        <time>2014-03-16T10:55:29Z</time>
      </trkpt>
      <trkpt lat="44.49469" lon="4.09141">
        <ele>618.22</ele>
        <time>2014-03-16T10:55:49Z</time>
      </trkpt>
      <trkpt lat="44.49458" lon="4.09119">
        <ele>624.89</ele>
        <time>2014-03-16T10:56:14Z</time>
      </trkpt>
      <trkpt lat="44.49448" lon="4.09098">
        <ele>627.19</ele>
        <time>2014-03-16T10:57:15Z</time>
      </trkpt>
      <trkpt lat="44.49435" lon="4.09081">
        <ele>633.83</ele>
        <time>2014-03-16T10:57:41Z</time>
      </trkpt>
      <trkpt lat="44.49425" lon="4.09059">
        <ele>638.35</ele>
        <time>2014-03-16T11:03:46Z</time>
      </trkpt>
      <trkpt lat="44.49419" lon="4.09035">
        <ele>638.98</ele>
        <time>2014-03-16T11:04:11Z</time>
      </trkpt>
      <trkpt lat="44.49407" lon="4.09016">
        <ele>639.8</ele>
        <time>2014-03-16T11:04:32Z</time>
      </trkpt>
      <trkpt lat="44.49395" lon="4.08995">
        <ele>637.96</ele>
        <time>2014-03-16T11:04:51Z</time>
      </trkpt>
      <trkpt lat="44.49384" lon="4.08975">
        <ele>644.53</ele>
        <time>2014-03-16T11:05:12Z</time>
      </trkpt>
      <trkpt lat="44.49369" lon="4.08962">
        <ele>639.75</ele>
        <time>2014-03-16T11:05:44Z</time>
      </trkpt>
      <trkpt lat="44.49357" lon="4.08942">
        <ele>641.24</ele>
        <time>2014-03-16T11:06:04Z</time>
      </trkpt>
      <trkpt lat="44.49345" lon="4.08922">
        <ele>642.32</ele>
        <time>2014-03-16T11:06:24Z</time>
      </trkpt>
      <trkpt lat="44.49334" lon="4.08901">
        <ele>629.96</ele>
        <time>2014-03-16T11:06:59Z</time>
      </trkpt>
      <trkpt lat="44.49319" lon="4.08884">
        <ele>625.03</ele>
        <time>2014-03-16T11:59:17Z</time>
      </trkpt>
      <trkpt lat="44.4931" lon="4.0886">
        <ele>623.03</ele>
        <time>2014-03-16T11:59:25Z</time>
      </trkpt>
      <trkpt lat="44.49292" lon="4.08849">
        <ele>612.29</ele>
        <time>2014-03-16T12:01:24Z</time>
      </trkpt>
      <trkpt lat="44.49279" lon="4.08832">
        <ele>607.69</ele>
        <time>2014-03-16T12:02:13Z</time>
      </trkpt>
      <trkpt lat="44.49266" lon="4.08813">
        <ele>604.36</ele>
        <time>2014-03-16T12:02:26Z</time>
      </trkpt>
      <trkpt lat="44.49255" lon="4.08792">
        <ele>607</ele>
        <time>2014-03-16T12:02:42Z</time>
      </trkpt>
      <trkpt lat="44.49258" lon="4.08767">
        <ele>604.75</ele>
        <time>2014-03-16T12:03:06Z</time>
      </trkpt>
      <trkpt lat="44.49251" lon="4.08743">
        <ele>600.47</ele>
        <time>2014-03-16T12:03:44Z</time>
      </trkpt>
      <trkpt lat="44.49244" lon="4.08719">
        <ele>589.19</ele>
        <time>2014-03-16T12:03:57Z</time>
      </trkpt>
      <trkpt lat="44.49225" lon="4.0872">
        <ele>585.63</ele>
        <time>2014-03-16T12:05:21Z</time>
      </trkpt>
      <trkpt lat="44.49213" lon="4.08739">
        <ele>583.5</ele>
        <time>2014-03-16T12:05:41Z</time>
      </trkpt>
      <trkpt lat="44.49205" lon="4.08763">
        <ele>577.09</ele>
        <time>2014-03-16T12:06:27Z</time>
      </trkpt>
      <trkpt lat="44.49199" lon="4.08788">
        <ele>581.6</ele>
        <time>2014-03-16T12:06:43Z</time>
      </trkpt>
      <trkpt lat="44.49189" lon="4.0881">
        <ele>585.81</ele>
        <time>2014-03-16T12:07:34Z</time>
      </trkpt>
      <trkpt lat="44.49187" lon="4.08837">
        <ele>584.18</ele>
        <time>2014-03-16T12:07:50Z</time>
      </trkpt>
      <trkpt lat="44.49188" lon="4.08862">
        <ele>582.59</ele>
        <time>2014-03-16T12:08:06Z</time>
      </trkpt>
      <trkpt lat="44.49185" lon="4.08888">
        <ele>578.56</ele>
        <time>2014-03-16T12:08:25Z</time>
      </trkpt>
      <trkpt lat="44.49187" lon="4.08914">
        <ele>583.19</ele>
        <time>2014-03-16T12:08:47Z</time>
      </trkpt>
      <trkpt lat="44.49186" lon="4.0894">
        <ele>574.66</ele>
        <time>2014-03-16T12:09:07Z</time>
      </trkpt>
      <trkpt lat="44.4917" lon="4.08954">
        <ele>574.47</ele>
        <time>2014-03-16T12:09:27Z</time>
      </trkpt>
      <trkpt lat="44.4916" lon="4.08976">
        <ele>576.93</ele>
        <time>2014-03-16T12:09:48Z</time>
      </trkpt>
      <trkpt lat="44.49148" lon="4.08995">
        <ele>577.5</ele>
        <time>2014-03-16T12:10:08Z</time>
      </trkpt>
      <trkpt lat="44.49137" lon="4.09016">
        <ele>575.46</ele>
        <time>2014-03-16T12:10:32Z</time>
      </trkpt>
      <trkpt lat="44.49128" lon="4.09038">
        <ele>575.37</ele>
        <time>2014-03-16T12:10:50Z</time>
      </trkpt>
      <trkpt lat="44.49116" lon="4.09057">
        <ele>582.69</ele>
        <time>2014-03-16T12:11:28Z</time>
      </trkpt>
      <trkpt lat="44.49111" lon="4.09081">
        <ele>588.46</ele>
        <time>2014-03-16T12:11:49Z</time>
      </trkpt>
      <trkpt lat="44.49102" lon="4.09103">
        <ele>584.09</ele>
        <time>2014-03-16T12:12:14Z</time>
      </trkpt>
      <trkpt lat="44.49094" lon="4.09127">
        <ele>585.43</ele>
        <time>2014-03-16T12:12:39Z</time>
      </trkpt>
      <trkpt lat="44.49079" lon="4.09142">
        <ele>576.5</ele>
        <time>2014-03-16T12:13:05Z</time>
      </trkpt>
      <trkpt lat="44.49066" lon="4.0916">
        <ele>577.84</ele>
        <time>2014-03-16T12:13:23Z</time>
      </trkpt>
      <trkpt lat="44.49052" lon="4.09177">
        <ele>580.14</ele>
        <time>2014-03-16T12:13:44Z</time>
      </trkpt>
      <trkpt lat="44.49035" lon="4.0919">
        <ele>575.97</ele>
        <time>2014-03-16T12:15:21Z</time>
      </trkpt>
      <trkpt lat="44.49017" lon="4.09193">
        <ele>573.95</ele>
        <time>2014-03-16T12:15:47Z</time>
      </trkpt>
      <trkpt lat="44.48998" lon="4.09196">
        <ele>572.74</ele>
        <time>2014-03-16T12:16:12Z</time>
      </trkpt>
      <trkpt lat="44.48979" lon="4.09198">
        <ele>568.45</ele>
        <time>2014-03-16T12:16:34Z</time>
      </trkpt>
      <trkpt lat="44.48962" lon="4.09202">
        <ele>564.13</ele>
        <time>2014-03-16T12:17:00Z</time>
      </trkpt>
      <trkpt lat="44.48947" lon="4.09185">
        <ele>565.55</ele>
        <time>2014-03-16T12:17:27Z</time>
      </trkpt>
      <trkpt lat="44.48932" lon="4.09171">
        <ele>571.87</ele>
        <time>2014-03-16T12:17:46Z</time>
      </trkpt>
      <trkpt lat="44.48914" lon="4.09175">
        <ele>572.65</ele>
        <time>2014-03-16T12:18:05Z</time>
      </trkpt>
      <trkpt lat="44.48896" lon="4.09176">
        <ele>567.31</ele>
        <time>2014-03-16T12:18:26Z</time>
      </trkpt>
      <trkpt lat="44.48879" lon="4.09182">
        <ele>561.58</ele>
        <time>2014-03-16T12:18:51Z</time>
      </trkpt>
      <trkpt lat="44.48861" lon="4.09187">
        <ele>555.78</ele>
        <time>2014-03-16T12:19:10Z</time>
      </trkpt>
      <trkpt lat="44.48845" lon="4.092">
        <ele>562.49</ele>
        <time>2014-03-16T12:19:29Z</time>
      </trkpt>
      <trkpt lat="44.48829" lon="4.09212">
        <ele>557.59</ele>
        <time>2014-03-16T12:19:55Z</time>
      </trkpt>
      <trkpt lat="44.48814" lon="4.09228">
        <ele>547.85</ele>
        <time>2014-03-16T12:20:29Z</time>
      </trkpt>
      <trkpt lat="44.48796" lon="4.09226">
        <ele>542.42</ele>
        <time>2014-03-16T12:21:16Z</time>
      </trkpt>
      <trkpt lat="44.48781" lon="4.09211">
        <ele>543.93</ele>
        <time>2014-03-16T12:21:53Z</time>
      </trkpt>
      <trkpt lat="44.48773" lon="4.09189">
        <ele>545.4</ele>
        <time>2014-03-16T12:22:12Z</time>
      </trkpt>
      <trkpt lat="44.4876" lon="4.09168">
        <ele>551.63</ele>
        <time>2014-03-16T12:23:00Z</time>
      </trkpt>
      <trkpt lat="44.48754" lon="4.09144">
        <ele>549.88</ele>
        <time>2014-03-16T12:23:19Z</time>
      </trkpt>
      <trkpt lat="44.48754" lon="4.09118">
        <ele>551.79</ele>
        <time>2014-03-16T12:23:43Z</time>
      </trkpt>
      <trkpt lat="44.48757" lon="4.09093">
        <ele>550.42</ele>
        <time>2014-03-16T12:24:04Z</time>
      </trkpt>
      <trkpt lat="44.48757" lon="4.09067">
        <ele>551.63</ele>
        <time>2014-03-16T12:24:19Z</time>
      </trkpt>
      <trkpt lat="44.48758" lon="4.0904">
        <ele>555.83</ele>
        <time>2014-03-16T12:24:50Z</time>
      </trkpt>
      <trkpt lat="44.48754" lon="4.09014">
        <ele>558.6</ele>
        <time>2014-03-16T12:25:03Z</time>
      </trkpt>
      <trkpt lat="44.48748" lon="4.08989">
        <ele>557.94</ele>
        <time>2014-03-16T12:25:19Z</time>
      </trkpt>
      <trkpt lat="44.4874" lon="4.08965">
        <ele>555.67</ele>
        <time>2014-03-16T12:25:40Z</time>
      </trkpt>
      <trkpt lat="44.48729" lon="4.08944">
        <ele>554.79</ele>
        <time>2014-03-16T12:25:59Z</time>
      </trkpt>
      <trkpt lat="44.48716" lon="4.08961">
        <ele>553.49</ele>
        <time>2014-03-16T12:26:39Z</time>
      </trkpt>
      <trkpt lat="44.4871" lon="4.08986">
        <ele>559.59</ele>
        <time>2014-03-16T12:26:50Z</time>
      </trkpt>
      <trkpt lat="44.48701" lon="4.09009">
        <ele>550.25</ele>
        <time>2014-03-16T12:27:05Z</time>
      </trkpt>
      <trkpt lat="44.48687" lon="4.09027">
        <ele>548.59</ele>
        <time>2014-03-16T12:27:21Z</time>
      </trkpt>
      <trkpt lat="44.48672" lon="4.09041">
        <ele>549.21</ele>
        <time>2014-03-16T12:27:37Z</time>
      </trkpt>
      <trkpt lat="44.48653" lon="4.09045">
        <ele>552.36</ele>
        <time>2014-03-16T12:27:55Z</time>
      </trkpt>
      <trkpt lat="44.48635" lon="4.09047">
        <ele>551.83</ele>
        <time>2014-03-16T12:28:15Z</time>
      </trkpt>
      <trkpt lat="44.48617" lon="4.09054">
        <ele>552.34</ele>
        <time>2014-03-16T12:28:33Z</time>
      </trkpt>
      <trkpt lat="44.48599" lon="4.09052">
        <ele>553.53</ele>
        <time>2014-03-16T12:28:48Z</time>
      </trkpt>
      <trkpt lat="44.48581" lon="4.09058">
        <ele>554.23</ele>
        <time>2014-03-16T12:29:08Z</time>
      </trkpt>
      <trkpt lat="44.48563" lon="4.0906">
        <ele>553.45</ele>
        <time>2014-03-16T12:29:28Z</time>
      </trkpt>
      <trkpt lat="44.48546" lon="4.0907">
        <ele>557.1</ele>
        <time>2014-03-16T12:29:40Z</time>
      </trkpt>
      <trkpt lat="44.48528" lon="4.09077">
        <ele>558.98</ele>
        <time>2014-03-16T12:29:56Z</time>
      </trkpt>
      <trkpt lat="44.48509" lon="4.09081">
        <ele>563.58</ele>
        <time>2014-03-16T12:30:12Z</time>
      </trkpt>
      <trkpt lat="44.48491" lon="4.09081">
        <ele>567.1</ele>
        <time>2014-03-16T12:30:25Z</time>
      </trkpt>
      <trkpt lat="44.48477" lon="4.09097">
        <ele>565.25</ele>
        <time>2014-03-16T12:30:41Z</time>
      </trkpt>
      <trkpt lat="44.48459" lon="4.09106">
        <ele>566.42</ele>
        <time>2014-03-16T12:30:57Z</time>
      </trkpt>
      <trkpt lat="44.48443" lon="4.09117">
        <ele>570.26</ele>
        <time>2014-03-16T12:31:17Z</time>
      </trkpt>
      <trkpt lat="44.48424" lon="4.09118">
        <ele>572.09</ele>
        <time>2014-03-16T12:31:32Z</time>
      </trkpt>
      <trkpt lat="44.48406" lon="4.09121">
        <ele>566.84</ele>
        <time>2014-03-16T12:31:52Z</time>
      </trkpt>
      <trkpt lat="44.48387" lon="4.09125">
        <ele>566.6</ele>
        <time>2014-03-16T12:32:09Z</time>
      </trkpt>
      <trkpt lat="44.48368" lon="4.09126">
        <ele>571.23</ele>
        <time>2014-03-16T12:32:25Z</time>
      </trkpt>
      <trkpt lat="44.48349" lon="4.09129">
        <ele>575.7</ele>
        <time>2014-03-16T12:35:10Z</time>
      </trkpt>
      <trkpt lat="44.4833" lon="4.09133">
        <ele>576.52</ele>
        <time>2014-03-16T12:35:24Z</time>
      </trkpt>
      <trkpt lat="44.48312" lon="4.09134">
        <ele>572.14</ele>
        <time>2014-03-16T12:35:41Z</time>
      </trkpt>
      <trkpt lat="44.48294" lon="4.09134">
        <ele>568.71</ele>
        <time>2014-03-16T12:35:59Z</time>
      </trkpt>
      <trkpt lat="44.48276" lon="4.09144">
        <ele>573.94</ele>
        <time>2014-03-16T12:36:18Z</time>
      </trkpt>
      <trkpt lat="44.48261" lon="4.09157">
        <ele>575.38</ele>
        <time>2014-03-16T12:36:36Z</time>
      </trkpt>
      <trkpt lat="44.48251" lon="4.09178">
        <ele>573.91</ele>
        <time>2014-03-16T12:36:49Z</time>
      </trkpt>
      <trkpt lat="44.48246" lon="4.09203">
        <ele>572.72</ele>
        <time>2014-03-16T12:37:07Z</time>
      </trkpt>
      <trkpt lat="44.48244" lon="4.09229">
        <ele>564.07</ele>
        <time>2014-03-16T12:37:27Z</time>
      </trkpt>
      <trkpt lat="44.48234" lon="4.09252">
        <ele>563.26</ele>
        <time>2014-03-16T12:37:44Z</time>
      </trkpt>
      <trkpt lat="44.48223" lon="4.09274">
        <ele>563.36</ele>
        <time>2014-03-16T12:37:59Z</time>
      </trkpt>
      <trkpt lat="44.48206" lon="4.09281">
        <ele>563.12</ele>
        <time>2014-03-16T12:38:22Z</time>
      </trkpt>
      <trkpt lat="44.48187" lon="4.09287">
        <ele>564.97</ele>
        <time>2014-03-16T12:38:45Z</time>
      </trkpt>
      <trkpt lat="44.48168" lon="4.09288">
        <ele>564.77</ele>
        <time>2014-03-16T12:39:02Z</time>
      </trkpt>
      <trkpt lat="44.4815" lon="4.09283">
        <ele>563.93</ele>
        <time>2014-03-16T12:39:18Z</time>
      </trkpt>
      <trkpt lat="44.48131" lon="4.09285">
        <ele>563.99</ele>
        <time>2014-03-16T12:39:35Z</time>
      </trkpt>
      <trkpt lat="44.48113" lon="4.09292">
        <ele>561.06</ele>
        <time>2014-03-16T12:39:52Z</time>
      </trkpt>
      <trkpt lat="44.48098" lon="4.09277">
        <ele>561.12</ele>
        <time>2014-03-16T12:40:09Z</time>
      </trkpt>
      <trkpt lat="44.48088" lon="4.09256">
        <ele>555.07</ele>
        <time>2014-03-16T12:40:27Z</time>
      </trkpt>
      <trkpt lat="44.48073" lon="4.09243">
        <ele>558.69</ele>
        <time>2014-03-16T12:41:13Z</time>
      </trkpt>
      <trkpt lat="44.48066" lon="4.09219">
        <ele>552.45</ele>
        <time>2014-03-16T12:41:30Z</time>
      </trkpt>
      <trkpt lat="44.48054" lon="4.09197">
        <ele>551.79</ele>
        <time>2014-03-16T12:41:54Z</time>
      </trkpt>
      <trkpt lat="44.48052" lon="4.09223">
        <ele>543.15</ele>
        <time>2014-03-16T12:43:15Z</time>
      </trkpt>
      <trkpt lat="44.48052" lon="4.09249">
        <ele>545.07</ele>
        <time>2014-03-16T12:43:31Z</time>
      </trkpt>
      <trkpt lat="44.48057" lon="4.09274">
        <ele>545.71</ele>
        <time>2014-03-16T12:43:47Z</time>
      </trkpt>
      <trkpt lat="44.4807" lon="4.09292">
        <ele>544.69</ele>
        <time>2014-03-16T12:44:02Z</time>
      </trkpt>
      <trkpt lat="44.48085" lon="4.09309">
        <ele>546.56</ele>
        <time>2014-03-16T12:44:35Z</time>
      </trkpt>
      <trkpt lat="44.48086" lon="4.09335">
        <ele>540.57</ele>
        <time>2014-03-16T12:44:54Z</time>
      </trkpt>
      <trkpt lat="44.48089" lon="4.0936">
        <ele>535.81</ele>
        <time>2014-03-16T12:46:42Z</time>
      </trkpt>
      <trkpt lat="44.48104" lon="4.09374">
        <ele>531.3</ele>
        <time>2014-03-16T12:46:55Z</time>
      </trkpt>
      <trkpt lat="44.48119" lon="4.09389">
        <ele>528.55</ele>
        <time>2014-03-16T12:47:13Z</time>
      </trkpt>
      <trkpt lat="44.48136" lon="4.09396">
        <ele>526.96</ele>
        <time>2014-03-16T12:47:50Z</time>
      </trkpt>
      <trkpt lat="44.48154" lon="4.09403">
        <ele>522.68</ele>
        <time>2014-03-16T12:48:17Z</time>
      </trkpt>
      <trkpt lat="44.48169" lon="4.09417">
        <ele>525.67</ele>
        <time>2014-03-16T12:48:33Z</time>
      </trkpt>
      <trkpt lat="44.48186" lon="4.0943">
        <ele>521.44</ele>
        <time>2014-03-16T12:49:15Z</time>
      </trkpt>
      <trkpt lat="44.48204" lon="4.09439">
        <ele>515.04</ele>
        <time>2014-03-16T12:49:52Z</time>
      </trkpt>
      <trkpt lat="44.48222" lon="4.09441">
        <ele>511.17</ele>
        <time>2014-03-16T12:50:07Z</time>
      </trkpt>
      <trkpt lat="44.48239" lon="4.09449">
        <ele>506.19</ele>
        <time>2014-03-16T12:50:46Z</time>
      </trkpt>
      <trkpt lat="44.48251" lon="4.09471">
        <ele>509.46</ele>
        <time>2014-03-16T12:51:00Z</time>
      </trkpt>
      <trkpt lat="44.48265" lon="4.09487">
        <ele>502.77</ele>
        <time>2014-03-16T12:51:18Z</time>
      </trkpt>
      <trkpt lat="44.48282" lon="4.09497">
        <ele>504.52</ele>
        <time>2014-03-16T12:52:11Z</time>
      </trkpt>
      <trkpt lat="44.48294" lon="4.09516">
        <ele>494.25</ele>
        <time>2014-03-16T12:52:49Z</time>
      </trkpt>
      <trkpt lat="44.48304" lon="4.09538">
        <ele>484.31</ele>
        <time>2014-03-16T12:53:46Z</time>
      </trkpt>
      <trkpt lat="44.48301" lon="4.09564">
        <ele>478.15</ele>
        <time>2014-03-16T12:54:15Z</time>
      </trkpt>
      <trkpt lat="44.48299" lon="4.09589">
        <ele>477.87</ele>
        <time>2014-03-16T12:54:25Z</time>
      </trkpt>
      <trkpt lat="44.4828" lon="4.09587">
        <ele>462.93</ele>
        <time>2014-03-16T12:55:34Z</time>
      </trkpt>
      <trkpt lat="44.48261" lon="4.09588">
        <ele>459.47</ele>
        <time>2014-03-16T12:56:25Z</time>
      </trkpt>
      <trkpt lat="44.48244" lon="4.09578">
        <ele>458.84</ele>
        <time>2014-03-16T12:56:38Z</time>
      </trkpt>
      <trkpt lat="44.48232" lon="4.09559">
        <ele>467.75</ele>
        <time>2014-03-16T12:57:11Z</time>
      </trkpt>
      <trkpt lat="44.48228" lon="4.09534">
        <ele>470.09</ele>
        <time>2014-03-16T12:57:27Z</time>
      </trkpt>
      <trkpt lat="44.4821" lon="4.09526">
        <ele>462.27</ele>
        <time>2014-03-16T12:58:04Z</time>
      </trkpt>
      <trkpt lat="44.48193" lon="4.09535">
        <ele>471.69</ele>
        <time>2014-03-16T12:58:57Z</time>
      </trkpt>
      <trkpt lat="44.48174" lon="4.09532">
        <ele>465.41</ele>
        <time>2014-03-16T12:59:10Z</time>
      </trkpt>
      <trkpt lat="44.48158" lon="4.09543">
        <ele>456.36</ele>
        <time>2014-03-16T12:59:40Z</time>
      </trkpt>
      <trkpt lat="44.4814" lon="4.09549">
        <ele>455.2</ele>
        <time>2014-03-16T13:00:01Z</time>
      </trkpt>
      <trkpt lat="44.48123" lon="4.09559">
        <ele>448.38</ele>
        <time>2014-03-16T13:00:23Z</time>
      </trkpt>
      <trkpt lat="44.48107" lon="4.0957">
        <ele>445.88</ele>
        <time>2014-03-16T13:00:51Z</time>
      </trkpt>
      <trkpt lat="44.48089" lon="4.09578">
        <ele>444.28</ele>
        <time>2014-03-16T13:01:11Z</time>
      </trkpt>
      <trkpt lat="44.4807" lon="4.0958">
        <ele>445.9</ele>
        <time>2014-03-16T13:01:40Z</time>
      </trkpt>
      <trkpt lat="44.48054" lon="4.0959">
        <ele>437.87</ele>
        <time>2014-03-16T13:02:02Z</time>
      </trkpt>
      <trkpt lat="44.48055" lon="4.09616">
        <ele>442.75</ele>
        <time>2014-03-16T13:15:16Z</time>
      </trkpt>
      <trkpt lat="44.48058" lon="4.09641">
        <ele>458.86</ele>
        <time>2014-03-16T13:16:01Z</time>
      </trkpt>
      <trkpt lat="44.48065" lon="4.09665">
        <ele>453.19</ele>
        <time>2014-03-16T13:16:43Z</time>
      </trkpt>
      <trkpt lat="44.48079" lon="4.09683">
        <ele>453.68</ele>
        <time>2014-03-16T13:16:59Z</time>
      </trkpt>
      <trkpt lat="44.48087" lon="4.09706">
        <ele>459.52</ele>
        <time>2014-03-16T13:17:22Z</time>
      </trkpt>
      <trkpt lat="44.48093" lon="4.0973">
        <ele>451.07</ele>
        <time>2014-03-16T13:17:44Z</time>
      </trkpt>
      <trkpt lat="44.48094" lon="4.09756">
        <ele>453.89</ele>
        <time>2014-03-16T13:18:10Z</time>
      </trkpt>
      <trkpt lat="44.48087" lon="4.09779">
        <ele>451.47</ele>
        <time>2014-03-16T13:18:27Z</time>
      </trkpt>
      <trkpt lat="44.48079" lon="4.09803">
        <ele>455.52</ele>
        <time>2014-03-16T13:18:59Z</time>
      </trkpt>
      <trkpt lat="44.48072" lon="4.09827">
        <ele>455.55</ele>
        <time>2014-03-16T13:19:23Z</time>
      </trkpt>
      <trkpt lat="44.48069" lon="4.09852">
        <ele>455.11</ele>
        <time>2014-03-16T13:19:46Z</time>
      </trkpt>
      <trkpt lat="44.48073" lon="4.09878">
        <ele>447.47</ele>
        <time>2014-03-16T13:20:12Z</time>
      </trkpt>
      <trkpt lat="44.48073" lon="4.09904">
        <ele>443.75</ele>
        <time>2014-03-16T13:20:30Z</time>
      </trkpt>
      <trkpt lat="44.48064" lon="4.09927">
        <ele>455.68</ele>
        <time>2014-03-16T13:21:51Z</time>
      </trkpt>
      <trkpt lat="44.48053" lon="4.09948">
        <ele>450.03</ele>
        <time>2014-03-16T13:22:09Z</time>
      </trkpt>
      <trkpt lat="44.48041" lon="4.09967">
        <ele>448.34</ele>
        <time>2014-03-16T13:22:25Z</time>
      </trkpt>
      <trkpt lat="44.4803" lon="4.09988">
        <ele>450.32</ele>
        <time>2014-03-16T13:22:42Z</time>
      </trkpt>
      <trkpt lat="44.48021" lon="4.1001">
        <ele>451.22</ele>
        <time>2014-03-16T13:23:04Z</time>
      </trkpt>
      <trkpt lat="44.48008" lon="4.10028">
        <ele>444.98</ele>
        <time>2014-03-16T13:24:03Z</time>
      </trkpt>
      <trkpt lat="44.47989" lon="4.10027">
        <ele>455.92</ele>
        <time>2014-03-16T13:24:45Z</time>
      </trkpt>
      <trkpt lat="44.47972" lon="4.10035">
        <ele>462.33</ele>
        <time>2014-03-16T13:25:04Z</time>
      </trkpt>
      <trkpt lat="44.47955" lon="4.10026">
        <ele>458.81</ele>
        <time>2014-03-16T13:25:22Z</time>
      </trkpt>
      <trkpt lat="44.47937" lon="4.10022">
        <ele>462.5</ele>
        <time>2014-03-16T13:25:40Z</time>
      </trkpt>
      <trkpt lat="44.47918" lon="4.10018">
        <ele>469.14</ele>
        <time>2014-03-16T13:25:55Z</time>
      </trkpt>
      <trkpt lat="44.47901" lon="4.10011">
        <ele>462.66</ele>
        <time>2014-03-16T13:26:10Z</time>
      </trkpt>
      <trkpt lat="44.47883" lon="4.10005">
        <ele>465.68</ele>
        <time>2014-03-16T13:26:26Z</time>
      </trkpt>
      <trkpt lat="44.47864" lon="4.10005">
        <ele>467.37</ele>
        <time>2014-03-16T13:26:45Z</time>
      </trkpt>
      <trkpt lat="44.47846" lon="4.10007">
        <ele>469.63</ele>
        <time>2014-03-16T13:26:56Z</time>
      </trkpt>
      <trkpt lat="44.4786" lon="4.09989">
        <ele>470.08</ele>
        <time>2014-03-16T13:27:31Z</time>
      </trkpt>
      <trkpt lat="44.47878" lon="4.09993">
        <ele>472.1</ele>
        <time>2014-03-16T13:27:45Z</time>
      </trkpt>
      <trkpt lat="44.47896" lon="4.09994">
        <ele>472.34</ele>
        <time>2014-03-16T13:28:05Z</time>
      </trkpt>
      <trkpt lat="44.47915" lon="4.09997">
        <ele>474.43</ele>
        <time>2014-03-16T13:28:18Z</time>
      </trkpt>
      <trkpt lat="44.47932" lon="4.09989">
        <ele>476.42</ele>
        <time>2014-03-16T13:28:39Z</time>
      </trkpt>
      <trkpt lat="44.47914" lon="4.09981">
        <ele>476.72</ele>
        <time>2014-03-16T13:29:01Z</time>
      </trkpt>
      <trkpt lat="44.47896" lon="4.09976">
        <ele>471.94</ele>
        <time>2014-03-16T13:29:20Z</time>
      </trkpt>
    </trkseg>
  </trk>
</gpx>